Terminal Aerodrome Forecast
Issued by NWS Lake Charles, LA

Home | Current Version | Previous Version | Text Only | Print | Product List | Glossary On
Versions: 1 2 3 4 5 6 7 8 9 10 11 12 13 14 15 16 17 18 19
000
FTUS44 KLCH 010530
TAFLFT
TAF
KLFT 010530Z 0106/0206 16006KT 5SM -SHRA VCTS BKN015CB OVC025
     FM010800 16005KT 5SM BR VCSH OVC012
      TEMPO 0108/0112 -SHRA SCT010 OVC020
     FM011400 15007KT 5SM -SHRA SCT012 OVC030
     FM011700 17010KT 5SM -SHRA SCT020 BKN035
     FM020100 14006KT P6SM VCSH BKN015=

USA.gov is the U.S. government's official web portal to all federal, state and local government web resources and services.